G. M. Dannevig — LINW — position and weather

sailwx.info

Track history (hours):
 
Tides and Currents Weather Stations Pressure Air Temp Water Temp Dewpoint Dewpoint Depression Visibility Wind Speed Wind Dir Waves Ship Positions

Oceanographic research ship G. M. Dannevig (Norway)

Detailed information on ship capabilities available from University of Delaware's Ocean Information Center.

Last reported at 2018-Apr-23 19:00 UTC. Time now 2018-Apr-23 19:11 UTC.
Position N 59°03' E 010°02'.

Length 27 m; draft 0.35 m.

Type: Dredging. MMSI: 258513000.

Date/timePositionNaut miles runAvg speedWind from/ knotsBaromVisibWave heightAir tempDewpointWater temp
2018-Apr-23 19:00N 59°03' E 010°02'0 0.0
2018-Apr-23 17:18N 59°03' E 010°02'0 0.0
2018-Apr-23 16:54N 59°03' E 010°02'0 0.0
2018-Apr-23 14:09N 59°03' E 010°02'0 0.0
2018-Apr-23 13:58N 59°03' E 010°02'1 2.6
2018-Apr-23 13:30N 59°02' E 010°02'4 8.4
2018-Apr-23 13:00N 58°58' E 010°03'5 9.7
2018-Apr-23 12:30N 58°57' E 009°54'3 6.5
2018-Apr-23 11:59N 58°57' E 009°48'4 4.3
2018-Apr-23 10:59N 59°02' E 009°47'4 2.9
2018-Apr-23 09:45N 59°03' E 009°41'24 3.4
2018-Apr-23 02:40N 58°43' E 009°14'0 0.0
2018-Apr-23 01:37N 58°43' E 009°14'0 0.0
2018-Apr-22 23:28N 58°43' E 009°14'0 0.0
2018-Apr-22 22:55N 58°43' E 009°14'0 0.0
2018-Apr-22 22:13N 58°43' E 009°14'0 0.0
2018-Apr-22 21:58N 58°43' E 009°14'0 0.0
2018-Apr-22 21:25N 58°43' E 009°14'0 0.0
2018-Apr-22 20:58N 58°43' E 009°14'0 0.0
2018-Apr-22 20:16N 58°43' E 009°14'0 0.0
2018-Apr-22 19:46N 58°43' E 009°14'0 0.0
2018-Apr-22 19:19N 58°43' E 009°14'0 0.0
2018-Apr-22 18:55N 58°43' E 009°14'0 0.0
2018-Apr-22 18:19N 58°43' E 009°14'0 0.0
2018-Apr-22 18:00N 58°43' E 009°14'3 5.8
2018-Apr-22 17:30N 58°40' E 009°14'5 9.2
2018-Apr-22 17:00N 58°36' E 009°09'5 8.9
2018-Apr-22 16:29N 58°33' E 009°03'5 9.6
2018-Apr-22 15:59N 58°29' E 008°58'5 9.8
2018-Apr-22 15:30N 58°26' E 008°52'4 7.3
2018-Apr-22 15:00N 58°24' E 008°46'2 4.7
2018-Apr-22 14:30N 58°23' E 008°50'3 6.8
2018-Apr-22 14:00N 58°20' E 008°53'4 9.0
2018-Apr-22 13:30N 58°16' E 008°58'3 5.0
2018-Apr-22 13:00N 58°14' E 009°01'3 7.0
2018-Apr-22 12:31N 58°12' E 009°05'4 7.4
2018-Apr-22 12:00N 58°09' E 009°09'1 1.9
2018-Apr-22 11:30N 58°08' E 009°11'0 0.2
2018-Apr-22 10:57N 58°08' E 009°11'3 7.2
2018-Apr-22 10:30N 58°05' E 009°14'5 8.9
2018-Apr-22 09:59N 58°01' E 009°19'2 4.1
2018-Apr-22 09:30N 57°60' E 009°21'5 8.5
2018-Apr-22 08:57N 57°56' E 009°26'3 5.6
2018-Apr-22 08:30N 57°54' E 009°29'5 7.0
2018-Apr-22 07:49N 57°51' E 009°36'2 7.6
2018-Apr-22 07:30N 57°49' E 009°38'4 6.7
2018-Apr-22 06:59N 57°46' E 009°42'4 8.8
2018-Apr-22 06:30N 57°43' E 009°47'3 5.2
2018-Apr-22 05:59N 57°41' E 009°50'3 6.8
2018-Apr-22 05:28N 57°38' E 009°54'3 6.4
2018-Apr-22 05:00N 57°36' E 009°57'0 0.0
2018-Apr-22 04:10N 57°36' E 009°57'0 0.0
2018-Apr-22 03:55N 57°36' E 009°57'0 0.0
2018-Apr-22 03:25N 57°36' E 009°57'0 0.0
2018-Apr-22 02:58N 57°36' E 009°57'0 0.0
2018-Apr-22 02:19N 57°36' E 009°57'0 0.0
2018-Apr-22 01:52N 57°36' E 009°57'0 0.0
2018-Apr-22 01:19N 57°36' E 009°57'0 0.0
2018-Apr-22 00:58N 57°36' E 009°57'0 0.0
2018-Apr-22 00:25N 57°36' E 009°57'0 0.0
2018-Apr-21 23:58N 57°36' E 009°57'0 0.0
2018-Apr-21 23:25N 57°36' E 009°57'0 0.0
2018-Apr-21 22:55N 57°36' E 009°57'0 0.0
2018-Apr-21 22:28N 57°36' E 009°57'0 0.0
2018-Apr-21 21:58N 57°36' E 009°57'0 0.0
2018-Apr-21 21:19N 57°36' E 009°57'0 0.0
2018-Apr-21 12:56N 57°36' E 009°57'3 6.6
2018-Apr-21 12:30N 57°38' E 009°54'5 9.5
2018-Apr-21 11:59N 57°41' E 009°48'5 9.6
2018-Apr-21 11:29N 57°45' E 009°42'5 9.8
2018-Apr-21 11:00N 57°49' E 009°36'5 9.3
2018-Apr-21 10:30N 57°52' E 009°31'19 9.5
2018-Apr-21 08:32N 58°08' E 009°11'1 9.7
2018-Apr-21 08:27N 58°08' E 009°10'4 9.4
2018-Apr-21 08:00N 58°12' E 009°05'5 9.2
2018-Apr-21 07:30N 58°15' E 008°60'5 9.3
2018-Apr-21 07:00N 58°19' E 008°55'5 9.5
2018-Apr-21 06:30N 58°23' E 008°50'3 0.2
2018-Apr-20 12:24N 58°25' E 008°45'3 7.3
2018-Apr-20 12:00N 58°23' E 008°44'4 8.2
2018-Apr-20 11:30N 58°19' E 008°41'4 8.0
2018-Apr-20 11:00N 58°16' E 008°36'4 8.2
2018-Apr-20 10:30N 58°13' E 008°30'4 8.4
2018-Apr-20 10:00N 58°10' E 008°24'5 9.4
2018-Apr-20 09:30N 58°07' E 008°18'5 9.8
2018-Apr-20 09:00N 58°04' E 008°10'21 9.2
2018-Apr-20 06:40N 57°57' E 007°32'2 8.9
2018-Apr-20 06:29N 57°58' E 007°29'5 9.1
2018-Apr-20 05:59N 57°59' E 007°21'5 9.4
2018-Apr-20 05:30N 58°01' E 007°13'2 0.2
2018-Apr-19 16:39N 58°02' E 007°09'3 8.9
2018-Apr-19 16:22N 57°60' E 007°06'3 8.9
2018-Apr-19 16:00N 57°59' E 007°00'510.1
2018-Apr-19 15:30N 58°01' E 006°52'510.4
2018-Apr-19 15:00N 58°03' E 006°42'5 9.7
2018-Apr-19 14:30N 58°05' E 006°35'6 8.7
2018-Apr-19 13:50N 58°09' E 006°27'3 9.3
2018-Apr-19 13:30N 58°11' E 006°22'5 9.7
2018-Apr-19 13:00N 58°14' E 006°15'4 8.9
2018-Apr-19 12:30N 58°17' E 006°09'4 9.1
2018-Apr-19 12:00N 58°20' E 006°02'5 9.8
2018-Apr-19 11:30N 58°23' E 005°55'510.1
2018-Apr-19 11:00N 58°27' E 005°48'510.1
2018-Apr-19 10:31N 58°30' E 005°42'5 9.7
2018-Apr-19 09:59N 58°35' E 005°36'5 9.9
2018-Apr-19 09:30N 58°39' E 005°31'5 9.8
2018-Apr-19 08:59N 58°43' E 005°26'4 9.2
2018-Apr-19 08:30N 58°47' E 005°23'4 8.5
2018-Apr-19 08:00N 58°51' E 005°20'4 7.8
2018-Apr-19 07:30N 58°55' E 005°18'4 8.0
2018-Apr-19 07:00N 58°59' E 005°18'5 9.0
2018-Apr-19 06:30N 59°03' E 005°19'5 9.2
2018-Apr-19 05:58N 59°08' E 005°20'4 9.2
2018-Apr-19 05:29N 59°13' E 005°20'4 9.1
2018-Apr-19 05:00N 59°17' E 005°20'176 5.4
2018-Apr-17 20:20N 62°13' E 005°10'3 8.7
2018-Apr-17 20:00N 62°15' E 005°15'4 8.8
2018-Apr-17 19:31N 62°17' E 005°23'4 8.8
2018-Apr-17 19:00N 62°19' E 005°31'5 8.0
2018-Apr-17 18:22N 62°22' E 005°41'3 8.7
2018-Apr-17 17:59N 62°24' E 005°47'4 9.0
2018-Apr-17 17:31N 62°26' E 005°54'5 9.2
2018-Apr-17 17:01N 62°28' E 006°03'4 8.8
2018-Apr-17 16:30N 62°31' E 006°09'5 9.2
2018-Apr-17 16:01N 62°35' E 006°15'6 9.5
2018-Apr-17 15:21N 62°39' E 006°25'4 9.2
2018-Apr-17 14:57N 62°42' E 006°29'4 9.3
2018-Apr-17 14:30N 62°46' E 006°34'5 9.1
2018-Apr-17 14:01N 62°50' E 006°39'5 9.0
2018-Apr-17 13:30N 62°54' E 006°45'5 9.3
2018-Apr-17 12:55N 62°58' E 006°53'4 9.7
2018-Apr-17 12:29N 62°60' E 007°01'4 9.2
2018-Apr-17 12:01N 63°02' E 007°10'5 9.4
2018-Apr-17 11:31N 63°03' E 007°19'5 9.5
2018-Apr-17 11:01N 63°05' E 007°29'5 9.2
2018-Apr-17 10:31N 63°07' E 007°38'3 5.7
2018-Apr-17 10:00N 63°07' E 007°44'0 0.0
2018-Apr-17 09:28N 63°07' E 007°44'0 0.0
2018-Apr-17 08:58N 63°07' E 007°44'0 0.0
2018-Apr-17 08:25N 63°07' E 007°44'0 0.0
2018-Apr-17 07:58N 63°07' E 007°44'0 0.0
2018-Apr-17 07:28N 63°07' E 007°44'0 0.0
2018-Apr-17 06:58N 63°07' E 007°44'0 0.0
2018-Apr-17 06:28N 63°07' E 007°44'0 0.0
2018-Apr-17 05:58N 63°07' E 007°44'0 0.0
2018-Apr-17 05:28N 63°07' E 007°44'0 0.0
2018-Apr-17 04:58N 63°07' E 007°44'0 0.0
2018-Apr-17 04:28N 63°07' E 007°44'0 0.0
2018-Apr-17 03:58N 63°07' E 007°44'0 0.0
2018-Apr-17 03:25N 63°07' E 007°44'0 0.0
2018-Apr-17 02:58N 63°07' E 007°44'0 0.0
2018-Apr-17 02:28N 63°07' E 007°44'0 0.0
2018-Apr-17 01:55N 63°07' E 007°44'0 0.0
2018-Apr-17 01:28N 63°07' E 007°44'0 0.0
2018-Apr-17 00:58N 63°07' E 007°44'0 0.0
2018-Apr-17 00:28N 63°07' E 007°44'0 0.0
2018-Apr-16 23:58N 63°07' E 007°44'0 0.0
2018-Apr-16 23:28N 63°07' E 007°44'0 0.0
2018-Apr-16 22:58N 63°07' E 007°44'0 0.0
2018-Apr-16 22:28N 63°07' E 007°44'0 0.0
2018-Apr-16 21:58N 63°07' E 007°44'0 0.0
2018-Apr-16 21:28N 63°07' E 007°44'0 0.0
2018-Apr-16 20:58N 63°07' E 007°44'0 0.0
2018-Apr-16 20:28N 63°07' E 007°44'0 0.0
2018-Apr-16 19:58N 63°07' E 007°44'0 0.0
2018-Apr-16 19:28N 63°07' E 007°44'0 0.0
2018-Apr-16 18:58N 63°07' E 007°44'0 0.0
2018-Apr-16 18:28N 63°07' E 007°44'0 0.0
2018-Apr-16 17:58N 63°07' E 007°44'0 0.0
2018-Apr-16 17:28N 63°07' E 007°44'0 0.0
2018-Apr-16 16:58N 63°07' E 007°44'0 0.0
2018-Apr-16 16:28N 63°07' E 007°44'0 0.0
2018-Apr-16 15:58N 63°07' E 007°44'0 0.0
2018-Apr-16 15:28N 63°07' E 007°44'0 0.0
2018-Apr-16 14:58N 63°07' E 007°44'1 2.0
2018-Apr-16 14:31N 63°06' E 007°42'2 4.7
2018-Apr-16 14:01N 63°07' E 007°38'4 7.1
2018-Apr-16 13:31N 63°04' E 007°33'3 6.0
2018-Apr-16 13:01N 63°01' E 007°35'4 7.5
2018-Apr-16 12:30N 63°04' E 007°29'4 8.5
2018-Apr-16 12:00N 63°03' E 007°20'1 2.8
2018-Apr-16 11:31N 63°02' E 007°22'2 3.1
2018-Apr-16 11:01N 63°03' E 007°23'1 2.3
2018-Apr-16 10:30N 63°03' E 007°25'2 4.9
2018-Apr-16 10:00N 63°04' E 007°30'2 4.6
2018-Apr-16 09:30N 63°03' E 007°35'1 2.5
2018-Apr-16 09:01N 63°03' E 007°32'3 5.4
2018-Apr-16 08:30N 63°05' E 007°36'2 3.6
2018-Apr-16 08:01N 63°07' E 007°35'4 7.8
2018-Apr-16 07:30N 63°08' E 007°44'2 4.4
2018-Apr-16 07:00N 63°10' E 007°48'3 5.9
2018-Apr-16 06:30N 63°11' E 007°54'2 3.3
2018-Apr-16 06:01N 63°12' E 007°57'4 7.8
2018-Apr-16 05:30N 63°09' E 007°50'4 7.3
2018-Apr-16 05:00N 63°07' E 007°44'0 0.0
2018-Apr-16 04:28N 63°07' E 007°44'0 0.0
2018-Apr-16 03:58N 63°07' E 007°44'0 0.0
2018-Apr-16 03:28N 63°07' E 007°44'0 0.0
2018-Apr-16 02:58N 63°07' E 007°44'0 0.0
2018-Apr-16 02:28N 63°07' E 007°44'0 0.0
2018-Apr-16 01:58N 63°07' E 007°44'0 0.0
2018-Apr-16 01:28N 63°07' E 007°44'0 0.0
2018-Apr-16 00:58N 63°07' E 007°44'0 0.0
2018-Apr-16 00:28N 63°07' E 007°44'0 0.0
2018-Apr-15 23:58N 63°07' E 007°44'0 0.0
2018-Apr-15 23:28N 63°07' E 007°44'0 0.0
2018-Apr-15 22:58N 63°07' E 007°44'0 0.0
2018-Apr-15 22:28N 63°07' E 007°44'0 0.0
2018-Apr-15 21:58N 63°07' E 007°44'0 0.0
2018-Apr-15 21:28N 63°07' E 007°44'0 0.0
2018-Apr-15 20:58N 63°07' E 007°44'0 0.0
2018-Apr-15 20:28N 63°07' E 007°44'0 0.0
2018-Apr-15 19:58N 63°07' E 007°44'0 0.0
2018-Apr-15 19:28N 63°07' E 007°44'0 0.0
2018-Apr-15 19:00N 63°07' E 007°44'0 0.0
2018-Apr-15 18:30N 63°07' E 007°44'0 0.0
2018-Apr-15 18:00N 63°07' E 007°44'0 0.0
2018-Apr-15 17:30N 63°07' E 007°44'0 0.0
2018-Apr-15 17:00N 63°07' E 007°44'0 0.0
2018-Apr-15 16:30N 63°07' E 007°44'2 4.0
2018-Apr-15 16:00N 63°08' E 007°48'5 9.3
2018-Apr-15 15:30N 63°12' E 007°50'5 9.1
2018-Apr-15 15:00N 63°16' E 007°55'2 4.3
2018-Apr-15 14:30N 63°16' E 007°60'4 8.5
2018-Apr-15 14:00N 63°17' E 008°09'3 5.6
2018-Apr-15 13:31N 63°16' E 008°04'3 6.4
2018-Apr-15 13:01N 63°18' E 008°07'1 2.5
2018-Apr-15 12:30N 63°19' E 008°10'2 3.3
2018-Apr-15 12:00N 63°20' E 008°11'2 4.7
2018-Apr-15 11:30N 63°20' E 008°16'2 4.4
2018-Apr-15 10:59N 63°18' E 008°15'3 5.0
2018-Apr-15 10:19N 63°20' E 008°21'2 1.2
2018-Apr-15 08:42N 63°21' E 008°24'5 5.0
2018-Apr-15 07:44N 63°25' E 008°31'2 6.8
2018-Apr-15 07:24N 63°23' E 008°26'2 5.1
2018-Apr-15 07:00N 63°24' E 008°22'3 6.3
2018-Apr-15 06:30N 63°25' E 008°15'3 4.6
2018-Apr-15 05:57N 63°23' E 008°12'0 0.0
2018-Apr-15 05:15N 63°23' E 008°12'0 0.0
2018-Apr-15 04:57N 63°23' E 008°12'0 0.0
2018-Apr-15 02:21N 63°23' E 008°12'0 0.0
2018-Apr-15 00:09N 63°23' E 008°12'0 0.0
2018-Apr-15 00:00N 63°23' E 008°12'0 0.0
2018-Apr-14 23:27N 63°23' E 008°12'0 0.0
2018-Apr-14 22:30N 63°23' E 008°12'0 0.0
2018-Apr-14 21:18N 63°23' E 008°12'0 0.0
2018-Apr-14 20:15N 63°23' E 008°12'0 0.0
2018-Apr-14 19:54N 63°23' E 008°12'0 0.0
2018-Apr-14 19:24N 63°23' E 008°12'0 0.0
2018-Apr-14 18:51N 63°23' E 008°12'0 0.0
2018-Apr-14 18:27N 63°23' E 008°12'0 0.0
2018-Apr-14 17:57N 63°23' E 008°12'0 0.0
2018-Apr-14 17:06N 63°23' E 008°12'0 0.2
2018-Apr-14 17:00N 63°23' E 008°12'2 4.0
2018-Apr-14 16:30N 63°22' E 008°16'2 3.2
2018-Apr-14 16:00N 63°21' E 008°19'1 1.9
2018-Apr-14 15:27N 63°22' E 008°21'  
Track history (hours):
 
Tides and Currents Weather Stations Pressure Air Temp Water Temp Dewpoint Dewpoint Depression Visibility Wind Speed Wind Dir Waves Ship Positions

Oceanographic research ship G. M. Dannevig (Norway)

Detailed information on ship capabilities available from University of Delaware's Ocean Information Center.

Last reported at 2018-Apr-23 19:00 UTC. Time now 2018-Apr-23 19:11 UTC.
Position N 59°03' E 010°02'.

Length 27 m; draft 0.35 m.

Type: Dredging. MMSI: 258513000.

Date/timePositionNaut miles runAvg speedWind from/ knotsBaromVisibWave heightAir tempDewpointWater temp
2018-Apr-23 19:00N 59°03' E 010°02'0 0.0
2018-Apr-23 17:18N 59°03' E 010°02'0 0.0
2018-Apr-23 16:54N 59°03' E 010°02'0 0.0
2018-Apr-23 14:09N 59°03' E 010°02'0 0.0
2018-Apr-23 13:58N 59°03' E 010°02'1 2.6
2018-Apr-23 13:30N 59°02' E 010°02'4 8.4
2018-Apr-23 13:00N 58°58' E 010°03'5 9.7
2018-Apr-23 12:30N 58°57' E 009°54'3 6.5
2018-Apr-23 11:59N 58°57' E 009°48'4 4.3
2018-Apr-23 10:59N 59°02' E 009°47'4 2.9
2018-Apr-23 09:45N 59°03' E 009°41'24 3.4
2018-Apr-23 02:40N 58°43' E 009°14'0 0.0
2018-Apr-23 01:37N 58°43' E 009°14'0 0.0
2018-Apr-22 23:28N 58°43' E 009°14'0 0.0
2018-Apr-22 22:55N 58°43' E 009°14'0 0.0
2018-Apr-22 22:13N 58°43' E 009°14'0 0.0
2018-Apr-22 21:58N 58°43' E 009°14'0 0.0
2018-Apr-22 21:25N 58°43' E 009°14'0 0.0
2018-Apr-22 20:58N 58°43' E 009°14'0 0.0
2018-Apr-22 20:16N 58°43' E 009°14'0 0.0
2018-Apr-22 19:46N 58°43' E 009°14'0 0.0
2018-Apr-22 19:19N 58°43' E 009°14'0 0.0
2018-Apr-22 18:55N 58°43' E 009°14'0 0.0
2018-Apr-22 18:19N 58°43' E 009°14'0 0.0
2018-Apr-22 18:00N 58°43' E 009°14'3 5.8
2018-Apr-22 17:30N 58°40' E 009°14'5 9.2
2018-Apr-22 17:00N 58°36' E 009°09'5 8.9
2018-Apr-22 16:29N 58°33' E 009°03'5 9.6
2018-Apr-22 15:59N 58°29' E 008°58'5 9.8
2018-Apr-22 15:30N 58°26' E 008°52'4 7.3
2018-Apr-22 15:00N 58°24' E 008°46'2 4.7
2018-Apr-22 14:30N 58°23' E 008°50'3 6.8
2018-Apr-22 14:00N 58°20' E 008°53'4 9.0
2018-Apr-22 13:30N 58°16' E 008°58'3 5.0
2018-Apr-22 13:00N 58°14' E 009°01'3 7.0
2018-Apr-22 12:31N 58°12' E 009°05'4 7.4
2018-Apr-22 12:00N 58°09' E 009°09'1 1.9
2018-Apr-22 11:30N 58°08' E 009°11'0 0.2
2018-Apr-22 10:57N 58°08' E 009°11'3 7.2
2018-Apr-22 10:30N 58°05' E 009°14'5 8.9
2018-Apr-22 09:59N 58°01' E 009°19'2 4.1
2018-Apr-22 09:30N 57°60' E 009°21'5 8.5
2018-Apr-22 08:57N 57°56' E 009°26'3 5.6
2018-Apr-22 08:30N 57°54' E 009°29'5 7.0
2018-Apr-22 07:49N 57°51' E 009°36'2 7.6
2018-Apr-22 07:30N 57°49' E 009°38'4 6.7
2018-Apr-22 06:59N 57°46' E 009°42'4 8.8
2018-Apr-22 06:30N 57°43' E 009°47'3 5.2
2018-Apr-22 05:59N 57°41' E 009°50'3 6.8
2018-Apr-22 05:28N 57°38' E 009°54'3 6.4
2018-Apr-22 05:00N 57°36' E 009°57'0 0.0
2018-Apr-22 04:10N 57°36' E 009°57'0 0.0
2018-Apr-22 03:55N 57°36' E 009°57'0 0.0
2018-Apr-22 03:25N 57°36' E 009°57'0 0.0
2018-Apr-22 02:58N 57°36' E 009°57'0 0.0
2018-Apr-22 02:19N 57°36' E 009°57'0 0.0
2018-Apr-22 01:52N 57°36' E 009°57'0 0.0
2018-Apr-22 01:19N 57°36' E 009°57'0 0.0
2018-Apr-22 00:58N 57°36' E 009°57'0 0.0
2018-Apr-22 00:25N 57°36' E 009°57'0 0.0
2018-Apr-21 23:58N 57°36' E 009°57'0 0.0
2018-Apr-21 23:25N 57°36' E 009°57'0 0.0
2018-Apr-21 22:55N 57°36' E 009°57'0 0.0
2018-Apr-21 22:28N 57°36' E 009°57'0 0.0
2018-Apr-21 21:58N 57°36' E 009°57'0 0.0
2018-Apr-21 21:19N 57°36' E 009°57'0 0.0
2018-Apr-21 12:56N 57°36' E 009°57'3 6.6
2018-Apr-21 12:30N 57°38' E 009°54'5 9.5
2018-Apr-21 11:59N 57°41' E 009°48'5 9.6
2018-Apr-21 11:29N 57°45' E 009°42'5 9.8
2018-Apr-21 11:00N 57°49' E 009°36'5 9.3
2018-Apr-21 10:30N 57°52' E 009°31'19 9.5
2018-Apr-21 08:32N 58°08' E 009°11'1 9.7
2018-Apr-21 08:27N 58°08' E 009°10'4 9.4
2018-Apr-21 08:00N 58°12' E 009°05'5 9.2
2018-Apr-21 07:30N 58°15' E 008°60'5 9.3
2018-Apr-21 07:00N 58°19' E 008°55'5 9.5
2018-Apr-21 06:30N 58°23' E 008°50'3 0.2
2018-Apr-20 12:24N 58°25' E 008°45'3 7.3
2018-Apr-20 12:00N 58°23' E 008°44'4 8.2
2018-Apr-20 11:30N 58°19' E 008°41'4 8.0
2018-Apr-20 11:00N 58°16' E 008°36'4 8.2
2018-Apr-20 10:30N 58°13' E 008°30'4 8.4
2018-Apr-20 10:00N 58°10' E 008°24'5 9.4
2018-Apr-20 09:30N 58°07' E 008°18'5 9.8
2018-Apr-20 09:00N 58°04' E 008°10'21 9.2
2018-Apr-20 06:40N 57°57' E 007°32'2 8.9
2018-Apr-20 06:29N 57°58' E 007°29'5 9.1
2018-Apr-20 05:59N 57°59' E 007°21'5 9.4
2018-Apr-20 05:30N 58°01' E 007°13'2 0.2
2018-Apr-19 16:39N 58°02' E 007°09'3 8.9
2018-Apr-19 16:22N 57°60' E 007°06'3 8.9
2018-Apr-19 16:00N 57°59' E 007°00'510.1
2018-Apr-19 15:30N 58°01' E 006°52'510.4
2018-Apr-19 15:00N 58°03' E 006°42'5 9.7
2018-Apr-19 14:30N 58°05' E 006°35'6 8.7
2018-Apr-19 13:50N 58°09' E 006°27'3 9.3
2018-Apr-19 13:30N 58°11' E 006°22'5 9.7
2018-Apr-19 13:00N 58°14' E 006°15'4 8.9
2018-Apr-19 12:30N 58°17' E 006°09'4 9.1
2018-Apr-19 12:00N 58°20' E 006°02'5 9.8
2018-Apr-19 11:30N 58°23' E 005°55'510.1
2018-Apr-19 11:00N 58°27' E 005°48'510.1
2018-Apr-19 10:31N 58°30' E 005°42'5 9.7
2018-Apr-19 09:59N 58°35' E 005°36'5 9.9
2018-Apr-19 09:30N 58°39' E 005°31'5 9.8
2018-Apr-19 08:59N 58°43' E 005°26'4 9.2
2018-Apr-19 08:30N 58°47' E 005°23'4 8.5
2018-Apr-19 08:00N 58°51' E 005°20'4 7.8
2018-Apr-19 07:30N 58°55' E 005°18'4 8.0
2018-Apr-19 07:00N 58°59' E 005°18'5 9.0
2018-Apr-19 06:30N 59°03' E 005°19'5 9.2
2018-Apr-19 05:58N 59°08' E 005°20'4 9.2
2018-Apr-19 05:29N 59°13' E 005°20'4 9.1
2018-Apr-19 05:00N 59°17' E 005°20'176 5.4
2018-Apr-17 20:20N 62°13' E 005°10'3 8.7
2018-Apr-17 20:00N 62°15' E 005°15'4 8.8
2018-Apr-17 19:31N 62°17' E 005°23'4 8.8
2018-Apr-17 19:00N 62°19' E 005°31'5 8.0
2018-Apr-17 18:22N 62°22' E 005°41'3 8.7
2018-Apr-17 17:59N 62°24' E 005°47'4 9.0
2018-Apr-17 17:31N 62°26' E 005°54'5 9.2
2018-Apr-17 17:01N 62°28' E 006°03'4 8.8
2018-Apr-17 16:30N 62°31' E 006°09'5 9.2
2018-Apr-17 16:01N 62°35' E 006°15'6 9.5
2018-Apr-17 15:21N 62°39' E 006°25'4 9.2
2018-Apr-17 14:57N 62°42' E 006°29'4 9.3
2018-Apr-17 14:30N 62°46' E 006°34'5 9.1
2018-Apr-17 14:01N 62°50' E 006°39'5 9.0
2018-Apr-17 13:30N 62°54' E 006°45'5 9.3
2018-Apr-17 12:55N 62°58' E 006°53'4 9.7
2018-Apr-17 12:29N 62°60' E 007°01'4 9.2
2018-Apr-17 12:01N 63°02' E 007°10'5 9.4
2018-Apr-17 11:31N 63°03' E 007°19'5 9.5
2018-Apr-17 11:01N 63°05' E 007°29'5 9.2
2018-Apr-17 10:31N 63°07' E 007°38'3 5.7
2018-Apr-17 10:00N 63°07' E 007°44'0 0.0
2018-Apr-17 09:28N 63°07' E 007°44'0 0.0
2018-Apr-17 08:58N 63°07' E 007°44'0 0.0
2018-Apr-17 08:25N 63°07' E 007°44'0 0.0
2018-Apr-17 07:58N 63°07' E 007°44'0 0.0
2018-Apr-17 07:28N 63°07' E 007°44'0 0.0
2018-Apr-17 06:58N 63°07' E 007°44'0 0.0
2018-Apr-17 06:28N 63°07' E 007°44'0 0.0
2018-Apr-17 05:58N 63°07' E 007°44'0 0.0
2018-Apr-17 05:28N 63°07' E 007°44'0 0.0
2018-Apr-17 04:58N 63°07' E 007°44'0 0.0
2018-Apr-17 04:28N 63°07' E 007°44'0 0.0
2018-Apr-17 03:58N 63°07' E 007°44'0 0.0
2018-Apr-17 03:25N 63°07' E 007°44'0 0.0
2018-Apr-17 02:58N 63°07' E 007°44'0 0.0
2018-Apr-17 02:28N 63°07' E 007°44'0 0.0
2018-Apr-17 01:55N 63°07' E 007°44'0 0.0
2018-Apr-17 01:28N 63°07' E 007°44'0 0.0
2018-Apr-17 00:58N 63°07' E 007°44'0 0.0
2018-Apr-17 00:28N 63°07' E 007°44'0 0.0
2018-Apr-16 23:58N 63°07' E 007°44'0 0.0
2018-Apr-16 23:28N 63°07' E 007°44'0 0.0
2018-Apr-16 22:58N 63°07' E 007°44'0 0.0
2018-Apr-16 22:28N 63°07' E 007°44'0 0.0
2018-Apr-16 21:58N 63°07' E 007°44'0 0.0
2018-Apr-16 21:28N 63°07' E 007°44'0 0.0
2018-Apr-16 20:58N 63°07' E 007°44'0 0.0
2018-Apr-16 20:28N 63°07' E 007°44'0 0.0
2018-Apr-16 19:58N 63°07' E 007°44'0 0.0
2018-Apr-16 19:28N 63°07' E 007°44'0 0.0
2018-Apr-16 18:58N 63°07' E 007°44'0 0.0
2018-Apr-16 18:28N 63°07' E 007°44'0 0.0
2018-Apr-16 17:58N 63°07' E 007°44'0 0.0
2018-Apr-16 17:28N 63°07' E 007°44'0 0.0
2018-Apr-16 16:58N 63°07' E 007°44'0 0.0
2018-Apr-16 16:28N 63°07' E 007°44'0 0.0
2018-Apr-16 15:58N 63°07' E 007°44'0 0.0
2018-Apr-16 15:28N 63°07' E 007°44'0 0.0
2018-Apr-16 14:58N 63°07' E 007°44'1 2.0
2018-Apr-16 14:31N 63°06' E 007°42'2 4.7
2018-Apr-16 14:01N 63°07' E 007°38'4 7.1
2018-Apr-16 13:31N 63°04' E 007°33'3 6.0
2018-Apr-16 13:01N 63°01' E 007°35'4 7.5
2018-Apr-16 12:30N 63°04' E 007°29'4 8.5
2018-Apr-16 12:00N 63°03' E 007°20'1 2.8
2018-Apr-16 11:31N 63°02' E 007°22'2 3.1
2018-Apr-16 11:01N 63°03' E 007°23'1 2.3
2018-Apr-16 10:30N 63°03' E 007°25'2 4.9
2018-Apr-16 10:00N 63°04' E 007°30'2 4.6
2018-Apr-16 09:30N 63°03' E 007°35'1 2.5
2018-Apr-16 09:01N 63°03' E 007°32'3 5.4
2018-Apr-16 08:30N 63°05' E 007°36'2 3.6
2018-Apr-16 08:01N 63°07' E 007°35'4 7.8
2018-Apr-16 07:30N 63°08' E 007°44'2 4.4
2018-Apr-16 07:00N 63°10' E 007°48'3 5.9
2018-Apr-16 06:30N 63°11' E 007°54'2 3.3
2018-Apr-16 06:01N 63°12' E 007°57'4 7.8
2018-Apr-16 05:30N 63°09' E 007°50'4 7.3
2018-Apr-16 05:00N 63°07' E 007°44'0 0.0
2018-Apr-16 04:28N 63°07' E 007°44'0 0.0
2018-Apr-16 03:58N 63°07' E 007°44'0 0.0
2018-Apr-16 03:28N 63°07' E 007°44'0 0.0
2018-Apr-16 02:58N 63°07' E 007°44'0 0.0
2018-Apr-16 02:28N 63°07' E 007°44'0 0.0
2018-Apr-16 01:58N 63°07' E 007°44'0 0.0
2018-Apr-16 01:28N 63°07' E 007°44'0 0.0
2018-Apr-16 00:58N 63°07' E 007°44'0 0.0
2018-Apr-16 00:28N 63°07' E 007°44'0 0.0
2018-Apr-15 23:58N 63°07' E 007°44'0 0.0
2018-Apr-15 23:28N 63°07' E 007°44'0 0.0
2018-Apr-15 22:58N 63°07' E 007°44'0 0.0
2018-Apr-15 22:28N 63°07' E 007°44'0 0.0
2018-Apr-15 21:58N 63°07' E 007°44'0 0.0
2018-Apr-15 21:28N 63°07' E 007°44'0 0.0
2018-Apr-15 20:58N 63°07' E 007°44'0 0.0
2018-Apr-15 20:28N 63°07' E 007°44'0 0.0
2018-Apr-15 19:58N 63°07' E 007°44'0 0.0
2018-Apr-15 19:28N 63°07' E 007°44'0 0.0
2018-Apr-15 19:00N 63°07' E 007°44'0 0.0
2018-Apr-15 18:30N 63°07' E 007°44'0 0.0
2018-Apr-15 18:00N 63°07' E 007°44'0 0.0
2018-Apr-15 17:30N 63°07' E 007°44'0 0.0
2018-Apr-15 17:00N 63°07' E 007°44'0 0.0
2018-Apr-15 16:30N 63°07' E 007°44'2 4.0
2018-Apr-15 16:00N 63°08' E 007°48'5 9.3
2018-Apr-15 15:30N 63°12' E 007°50'5 9.1
2018-Apr-15 15:00N 63°16' E 007°55'2 4.3
2018-Apr-15 14:30N 63°16' E 007°60'4 8.5
2018-Apr-15 14:00N 63°17' E 008°09'3 5.6
2018-Apr-15 13:31N 63°16' E 008°04'3 6.4
2018-Apr-15 13:01N 63°18' E 008°07'1 2.5
2018-Apr-15 12:30N 63°19' E 008°10'2 3.3
2018-Apr-15 12:00N 63°20' E 008°11'2 4.7
2018-Apr-15 11:30N 63°20' E 008°16'2 4.4
2018-Apr-15 10:59N 63°18' E 008°15'3 5.0
2018-Apr-15 10:19N 63°20' E 008°21'2 1.2
2018-Apr-15 08:42N 63°21' E 008°24'5 5.0
2018-Apr-15 07:44N 63°25' E 008°31'2 6.8
2018-Apr-15 07:24N 63°23' E 008°26'2 5.1
2018-Apr-15 07:00N 63°24' E 008°22'3 6.3
2018-Apr-15 06:30N 63°25' E 008°15'3 4.6
2018-Apr-15 05:57N 63°23' E 008°12'0 0.0
2018-Apr-15 05:15N 63°23' E 008°12'0 0.0
2018-Apr-15 04:57N 63°23' E 008°12'0 0.0
2018-Apr-15 02:21N 63°23' E 008°12'0 0.0
2018-Apr-15 00:09N 63°23' E 008°12'0 0.0
2018-Apr-15 00:00N 63°23' E 008°12'0 0.0
2018-Apr-14 23:27N 63°23' E 008°12'0 0.0
2018-Apr-14 22:30N 63°23' E 008°12'0 0.0
2018-Apr-14 21:18N 63°23' E 008°12'0 0.0
2018-Apr-14 20:15N 63°23' E 008°12'0 0.0
2018-Apr-14 19:54N 63°23' E 008°12'0 0.0
2018-Apr-14 19:24N 63°23' E 008°12'0 0.0
2018-Apr-14 18:51N 63°23' E 008°12'0 0.0
2018-Apr-14 18:27N 63°23' E 008°12'0 0.0
2018-Apr-14 17:57N 63°23' E 008°12'0 0.0
2018-Apr-14 17:06N 63°23' E 008°12'0 0.2
2018-Apr-14 17:00N 63°23' E 008°12'2 4.0
2018-Apr-14 16:30N 63°22' E 008°16'2 3.2
2018-Apr-14 16:00N 63°21' E 008°19'1 1.9
2018-Apr-14 15:27N 63°22' E 008°21'  

Dump ship's entire track history